South Queensferry, United Kingdom
Current Conditions -  °F | °C
As of 1:50 AM on Monday 22 Dec 2014 (Local Time) from EGPH Reporting Station
Light Rain Light Rain  
Wind Chill: 10°   Ceiling: 4900
Heat Index: 10°   Visibility: 6mi
Dew Point:   Wind: 20mph
Humidity: 87%   Direction: 250°WSW
Pressure: 29.59"   Gusts: NA
Location:  55.99°N, 3.39°W
Report Text: EGPH 220150Z 25017KT 9999 -RA FEW018CB BKN049 10/08 Q1002
Loading
Personal Weather Stations






























Interactive Weather Map New forecast layout! Learn more

10-Day Weather Forecast

Advertisements
Track Severe Weather on mobile